Minneapolis, MN

11:04 CST le 23 novembre 2014 (GMT -0600)
Minneapolis-Saint Paul International | Change Station
CLOSE
Current Station
Aéroport
Location: Minneapolis,
Altitude: 837 ft
Stations météo à proximité

Alt. 837 ft 44.89 °N, 93.23 °W | Updated 11 minutes ago

Brouillard
Brouillard
49 ° F
Paraît 49 ° F
N
0
Vent Variable Vent de Nord

Aujourd'hui
Haut(e) -- | Bas -- ° F
--% Risque de précip.
Hier
Haut(e) -- | Bas -- ° F
Precip. -- pouce
7:21 AM 4:37 PM
Nouvelle lune, 2% visible
Pression 29.45 pouce
Visibilité 0.2 Miles terrestres
Nuages Couvert 300 ft
Point de rosée 48 ° F
Humidité 97%
Précipitations 0.00 pouce
Profondeur de la couche neigeuse Non disponible.
UV 1 sur 12
Pollen .10 sur 12
Qualité de l'air Non disponible.
Flu Activity Non disponible.
METAR KMSP 231653Z 00000KT 1/4SM R30L/1600V4500FT -DZ FG OVC003 09/09 A2943 RMK AO2 DZB30 SLP971 P0000 T00940089

More Conditions Fewer Conditions

Pression 29.45 pouce
Visibilité 0.2 Miles terrestres
Nuages Couvert 300 ft
Point de rosée 48 ° F
Humidité 97%
Précipitations 0.00 pouce
Profondeur de la couche neigeuse Non disponible.
UV 1 sur 12
Pollen .10 sur 12
Qualité de l'air Non disponible.
Flu Activity Non disponible.
METAR KMSP 231653Z 00000KT 1/4SM R30L/1600V4500FT -DZ FG OVC003 09/09 A2943 RMK AO2 DZB30 SLP971 P0000 T00940089

More Conditions Fewer Conditions

10-Day Weather Forecast

Almanac

Astronomie

Nov. 23, 2014 Lever Coucher
Temps réel
Crépuscule civil
Crépuscule nautique
Crépuscule astronomique
Lune
Durée de lumière visible
Longueur du jour
Tomorrow will be .
, % of the Moon is Illuminated

Extrêmes aujourd'hui

State Highs State Lows

Community

WunderPhotos

Upload Photos

1,773,098 Photos téléchargées !

WunderBlogs® & News

Nearby

Qualité de l'air

  Qualité de l'air Indice de la qualité de l'air Polluant
Not available.

Épaisseur de neige

Station Depth Altitude

Activité sismique

Ville Distance Mag. Time & Date
Minimum magnitude displayed is 2.5.

Températures des eaux côtières

Lieu Température

Stations météo à proximité